Time;durP1;ratioP1;P1;durP2;ratioP2;P2;SDS_P1;SDS_P2;PMS_P1;PMS_P2;Temp;Humidity;BMP_temperature;BMP_pressure;BME280_temperature;BME280_humidity;BME280_pressure;Samples;Min_cycle;Max_cycle;Signal;HPM_P1;HPM_P2
2022/01/04 00:00:50;;;;;;;9.02;7.00;;;;;;;;;;4975306;28;20125;-84
2022/01/04 00:03:16;;;;;;;10.93;7.22;;;;;;;;;;4965639;28;20038;-85
2022/01/04 00:05:41;;;;;;;10.73;7.22;;;;;;;;;;4964584;28;20035;-86
2022/01/04 00:08:10;;;;;;;10.45;6.72;;;;;;;;;;4970093;28;20026;-84
2022/01/04 00:10:36;;;;;;;9.65;6.60;;;;;;;;;;4971259;28;20112;-85
2022/01/04 00:15:45;;;;;;;10.73;7.05;;;;;;;;;;4979184;28;20510;-84
2022/01/04 00:18:11;;;;;;;11.18;7.68;;;;;;;;;;4966873;28;20039;-84
2022/01/04 00:20:37;;;;;;;9.18;6.78;;;;;;;;;;4961002;28;20026;-85
2022/01/04 00:23:03;;;;;;;9.10;7.35;;;;;;;;;;4967292;28;20506;-85
2022/01/04 00:25:28;;;;;;;11.50;7.80;;;;;;;;;;4966291;28;20026;-85
2022/01/04 00:27:54;;;;;;;10.07;7.32;;;;;;;;;;4967800;28;20475;-84
2022/01/04 00:30:19;;;;;;;10.35;6.85;;;;;;;;;;4973588;28;20579;-85
2022/01/04 00:32:44;;;;;;;11.20;7.25;;;;;;;;;;4981438;28;20031;-85
2022/01/04 00:35:10;;;;;;;10.77;7.30;;;;;;;;;;4973895;28;20030;-86
2022/01/04 00:37:36;;;;;;;10.82;7.63;;;;;;;;;;4964529;28;20105;-85
2022/01/04 00:40:01;;;;;;;9.68;6.85;;;;;;;;;;4986166;28;20026;-84
2022/01/04 00:42:27;;;;;;;10.25;6.68;;;;;;;;;;4985245;28;20061;-83
2022/01/04 00:44:52;;;;;;;11.27;7.20;;;;;;;;;;4967540;28;20042;-83
2022/01/04 00:47:25;;;;;;;10.73;7.07;;;;;;;;;;4964534;28;20023;-83
2022/01/04 00:49:51;;;;;;;;;;;;;;;;;;4970375;28;20057;-85
2022/01/04 00:52:17;;;;;;;11.13;7.38;;;;;;;;;;4966700;28;20023;-86
2022/01/04 00:54:42;;;;;;;8.93;6.65;;;;;;;;;;4971225;28;20989;-85
2022/01/04 00:57:08;;;;;;;10.13;7.47;;;;;;;;;;4964935;28;20031;-85
2022/01/04 00:59:33;;;;;;;10.73;7.13;;;;;;;;;;4966322;28;20100;-85
2022/01/04 01:01:59;;;;;;;10.60;7.47;;;;;;;;;;4967297;28;20035;-85
2022/01/04 01:04:24;;;;;;;10.05;7.25;;;;;;;;;;4972991;28;20026;-85
2022/01/04 01:06:49;;;;;;;10.63;8.07;;;;;;;;;;4969679;28;20456;-86
2022/01/04 01:09:15;;;;;;;10.80;8.15;;;;;;;;;;4967350;28;20030;-86
2022/01/04 01:11:40;;;;;;;12.35;7.60;;;;;;;;;;4981317;28;20385;-86
2022/01/04 01:14:05;;;;;;;10.43;7.85;;;;;;;;;;4964515;28;20448;-85
2022/01/04 01:16:31;;;;;;;13.90;8.27;;;;;;;;;;4967613;28;20030;-84
2022/01/04 01:18:57;;;;;;;18.08;8.80;;;;;;;;;;4964343;28;20022;-85
2022/01/04 01:21:22;;;;;;;11.13;8.05;;;;;;;;;;4969572;28;20035;-84
2022/01/04 01:23:47;;;;;;;9.38;7.30;;;;;;;;;;4961229;28;20045;-84
2022/01/04 01:26:13;;;;;;;11.10;7.88;;;;;;;;;;4966048;28;21999;-84
2022/01/04 01:28:38;;;;;;;12.60;8.45;;;;;;;;;;4967610;28;20443;-85
2022/01/04 01:31:04;;;;;;;9.38;7.30;;;;;;;;;;4980533;28;20026;-84
2022/01/04 01:33:29;;;;;;;10.65;7.68;;;;;;;;;;4961512;28;20058;-83
2022/01/04 01:35:55;;;;;;;10.50;7.57;;;;;;;;;;4983893;28;20038;-84
2022/01/04 01:38:21;;;;;;;10.07;7.65;;;;;;;;;;4962396;28;20038;-87
2022/01/04 01:40:48;;;;;;;12.73;7.60;;;;;;;;;;4956044;28;20133;-84
2022/01/04 01:43:14;;;;;;;11.30;7.22;;;;;;;;;;4961187;28;20027;-84
2022/01/04 01:45:40;;;;;;;9.57;7.78;;;;;;;;;;4978700;28;20044;-85
2022/01/04 01:48:06;;;;;;;8.95;7.55;;;;;;;;;;4982115;28;20026;-85
2022/01/04 01:50:31;;;;;;;11.20;7.78;;;;;;;;;;4963410;28;21319;-84
2022/01/04 01:52:58;;;;;;;13.77;7.43;;;;;;;;;;4968599;28;20392;-83
2022/01/04 01:55:24;;;;;;;10.15;7.43;;;;;;;;;;4964231;28;20568;-83
2022/01/04 01:57:50;;;;;;;9.30;7.07;;;;;;;;;;4972442;28;20117;-86
2022/01/04 02:00:19;;;;;;;9.75;6.68;;;;;;;;;;4971642;28;20015;-83
2022/01/04 02:02:44;;;;;;;10.25;6.85;;;;;;;;;;4967202;28;20547;-83
2022/01/04 02:05:09;;;;;;;11.88;7.20;;;;;;;;;;4984374;28;20031;-85
2022/01/04 02:07:36;;;;;;;8.88;6.38;;;;;;;;;;4983867;28;20109;-85
2022/01/04 02:10:05;;;;;;;9.73;6.65;;;;;;;;;;4973347;28;20053;-85
2022/01/04 02:12:33;;;;;;;9.32;6.80;;;;;;;;;;4967175;28;20096;-83
2022/01/04 02:14:58;;;;;;;8.00;6.03;;;;;;;;;;4968556;28;20030;-84
2022/01/04 02:17:24;;;;;;;10.32;6.10;;;;;;;;;;4963580;28;20535;-84
2022/01/04 02:19:51;;;;;;;9.77;6.43;;;;;;;;;;4971381;28;20078;-84
2022/01/04 02:22:16;;;;;;;8.30;6.40;;;;;;;;;;4964325;28;20035;-85
2022/01/04 02:24:42;;;;;;;8.85;6.32;;;;;;;;;;4965123;28;20023;-84
2022/01/04 02:27:07;;;;;;;8.88;6.10;;;;;;;;;;4964204;28;20110;-85
2022/01/04 02:29:32;;;;;;;10.73;6.55;;;;;;;;;;4968936;28;20117;-85
2022/01/04 02:31:58;;;;;;;9.65;6.88;;;;;;;;;;4965825;28;20027;-85
2022/01/04 02:34:23;;;;;;;11.25;6.72;;;;;;;;;;4965786;28;20057;-84
2022/01/04 02:36:49;;;;;;;9.32;6.60;;;;;;;;;;4964608;28;20556;-84
2022/01/04 02:39:14;;;;;;;10.93;7.38;;;;;;;;;;4993255;28;20026;-84
2022/01/04 02:41:39;;;;;;;9.63;6.90;;;;;;;;;;4968567;28;20998;-85
2022/01/04 02:44:05;;;;;;;12.07;7.82;;;;;;;;;;4964908;28;20022;-84
2022/01/04 02:46:30;;;;;;;11.55;7.25;;;;;;;;;;4964907;28;20065;-85
2022/01/04 02:48:56;;;;;;;11.43;7.78;;;;;;;;;;4964364;28;20112;-85
2022/01/04 02:51:23;;;;;;;9.77;7.10;;;;;;;;;;4971587;28;20041;-84
2022/01/04 02:53:48;;;;;;;14.25;8.05;;;;;;;;;;4967506;28;20037;-85
2022/01/04 02:56:14;;;;;;;11.68;7.53;;;;;;;;;;4995010;28;20118;-85
2022/01/04 02:58:40;;;;;;;12.10;7.30;;;;;;;;;;4997770;28;20041;-86
2022/01/04 03:01:05;;;;;;;9.60;7.15;;;;;;;;;;5002007;28;20030;-86
2022/01/04 03:03:32;;;;;;;10.95;7.65;;;;;;;;;;4995059;28;20058;-85
2022/01/04 03:05:57;;;;;;;11.15;7.88;;;;;;;;;;4985273;28;20042;-86
2022/01/04 03:08:24;;;;;;;10.65;7.30;;;;;;;;;;4966855;28;20469;-85
2022/01/04 03:10:50;;;;;;;11.23;7.47;;;;;;;;;;4997458;28;20041;-84
2022/01/04 03:13:16;;;;;;;10.00;7.20;;;;;;;;;;4965197;28;20038;-85
2022/01/04 03:15:45;;;;;;;10.20;7.82;;;;;;;;;;4968618;28;20496;-84
2022/01/04 03:18:11;;;;;;;12.80;7.70;;;;;;;;;;4968244;28;20019;-84
2022/01/04 03:20:36;;;;;;;10.63;7.40;;;;;;;;;;5001494;28;20493;-84
2022/01/04 03:23:02;;;;;;;10.10;7.78;;;;;;;;;;4967640;28;20027;-85
2022/01/04 03:25:28;;;;;;;9.18;6.93;;;;;;;;;;5000325;28;20054;-83
2022/01/04 03:27:53;;;;;;;15.15;8.55;;;;;;;;;;4965371;28;20034;-84
2022/01/04 03:30:18;;;;;;;11.50;7.53;;;;;;;;;;4971522;28;20062;-83
2022/01/04 03:32:44;;;;;;;11.18;8.07;;;;;;;;;;4962559;28;20050;-84
2022/01/04 03:35:10;;;;;;;12.07;9.00;;;;;;;;;;5002072;28;20031;-85
2022/01/04 03:37:35;;;;;;;9.55;7.55;;;;;;;;;;4974085;28;20461;-83
2022/01/04 03:40:02;;;;;;;12.88;8.60;;;;;;;;;;4992230;28;20069;-84
2022/01/04 03:42:27;;;;;;;12.23;8.45;;;;;;;;;;4966242;28;20034;-85
2022/01/04 03:44:53;;;;;;;14.80;8.35;;;;;;;;;;4971765;28;20125;-84
2022/01/04 03:47:18;;;;;;;11.82;8.40;;;;;;;;;;4971435;28;20484;-84
2022/01/04 03:49:43;;;;;;;12.35;8.77;;;;;;;;;;4971544;28;20018;-85
2022/01/04 03:52:09;;;;;;;13.70;8.27;;;;;;;;;;4977166;28;20033;-84
2022/01/04 03:54:35;;;;;;;12.35;8.45;;;;;;;;;;4963345;28;20496;-85
2022/01/04 03:57:00;;;;;;;12.07;8.23;;;;;;;;;;4970782;28;20137;-85
2022/01/04 03:59:25;;;;;;;11.98;8.80;;;;;;;;;;4989053;28;20035;-83
2022/01/04 04:01:51;;;;;;;10.48;7.72;;;;;;;;;;4972831;28;20042;-85
2022/01/04 04:04:17;;;;;;;10.73;8.02;;;;;;;;;;4980868;28;20018;-85
2022/01/04 04:06:42;;;;;;;13.38;8.77;;;;;;;;;;4972520;28;20121;-85
2022/01/04 04:09:08;;;;;;;11.82;8.60;;;;;;;;;;4971893;28;20030;-85
2022/01/04 04:11:33;;;;;;;11.85;8.32;;;;;;;;;;4992961;28;20030;-84
2022/01/04 04:13:59;;;;;;;9.98;7.75;;;;;;;;;;4966501;28;20037;-86
2022/01/04 04:16:24;;;;;;;10.90;8.18;;;;;;;;;;4971596;28;20499;-83
2022/01/04 04:18:49;;;;;;;10.60;7.75;;;;;;;;;;4987193;28;20145;-84
2022/01/04 04:21:15;;;;;;;13.55;8.27;;;;;;;;;;4965300;28;20034;-84
2022/01/04 04:23:40;;;;;;;12.27;8.63;;;;;;;;;;4984878;28;20034;-85
2022/01/04 04:26:07;;;;;;;13.18;9.20;;;;;;;;;;4969367;28;20026;-85
2022/01/04 04:28:32;;;;;;;11.30;8.45;;;;;;;;;;4968749;28;20473;-84
2022/01/04 04:30:57;;;;;;;10.75;8.20;;;;;;;;;;4969675;28;20037;-86
2022/01/04 04:33:23;;;;;;;10.45;7.88;;;;;;;;;;4966999;28;20029;-85
2022/01/04 04:35:48;;;;;;;12.02;8.45;;;;;;;;;;4968093;28;20633;-83
2022/01/04 04:38:13;;;;;;;11.13;8.07;;;;;;;;;;4980390;28;20054;-85
2022/01/04 04:40:39;;;;;;;10.52;7.53;;;;;;;;;;4968104;28;20066;-84
2022/01/04 04:43:05;;;;;;;10.80;7.93;;;;;;;;;;5000200;28;20057;-85
2022/01/04 04:45:30;;;;;;;10.88;7.90;;;;;;;;;;4969683;28;20035;-85
2022/01/04 04:47:56;;;;;;;12.88;8.18;;;;;;;;;;4970890;28;20026;-85
2022/01/04 04:50:21;;;;;;;11.93;7.93;;;;;;;;;;4998967;28;20030;-84
2022/01/04 04:52:47;;;;;;;11.15;8.07;;;;;;;;;;4963496;28;20018;-86
2022/01/04 04:55:12;;;;;;;10.38;7.68;;;;;;;;;;4968846;28;20490;-83
2022/01/04 04:57:39;;;;;;;10.38;8.10;;;;;;;;;;4980614;28;20030;-85
2022/01/04 05:00:06;;;;;;;10.95;8.15;;;;;;;;;;4968625;28;20026;-83
2022/01/04 05:02:32;;;;;;;10.75;7.88;;;;;;;;;;4991842;28;20576;-83
2022/01/04 05:04:57;;;;;;;10.68;7.70;;;;;;;;;;4985235;28;20105;-85
2022/01/04 05:07:22;;;;;;;11.65;8.55;;;;;;;;;;4985281;28;20034;-85
2022/01/04 05:09:48;;;;;;;11.15;7.70;;;;;;;;;;4968111;28;20019;-85
2022/01/04 05:12:13;;;;;;;12.60;8.45;;;;;;;;;;4979198;28;20037;-86
2022/01/04 05:14:44;;;;;;;11.40;8.40;;;;;;;;;;4965111;28;20539;-83
2022/01/04 05:17:10;;;;;;;13.25;8.70;;;;;;;;;;4980964;28;20042;-84
2022/01/04 05:19:35;;;;;;;14.18;9.20;;;;;;;;;;4987444;28;20028;-85
2022/01/04 05:22:01;;;;;;;14.48;9.55;;;;;;;;;;4969938;28;20083;-83
2022/01/04 05:24:26;;;;;;;13.45;9.27;;;;;;;;;;4984730;28;20373;-84
2022/01/04 05:26:51;;;;;;;12.27;8.95;;;;;;;;;;4961416;28;20041;-83
2022/01/04 05:29:16;;;;;;;11.15;9.02;;;;;;;;;;4987354;28;20030;-83
2022/01/04 05:31:42;;;;;;;12.20;8.55;;;;;;;;;;4967541;28;20045;-85
2022/01/04 05:34:07;;;;;;;13.18;8.48;;;;;;;;;;4968499;28;20187;-84
2022/01/04 05:36:33;;;;;;;12.02;9.00;;;;;;;;;;4967819;28;20046;-84
2022/01/04 05:38:58;;;;;;;12.45;8.40;;;;;;;;;;4969275;28;20026;-83
2022/01/04 05:41:23;;;;;;;12.20;8.63;;;;;;;;;;4967223;28;20092;-84
2022/01/04 05:43:49;;;;;;;12.65;8.57;;;;;;;;;;4984936;28;20117;-83
2022/01/04 05:46:17;;;;;;;10.88;8.20;;;;;;;;;;4965146;28;20527;-84
2022/01/04 05:48:43;;;;;;;13.35;8.45;;;;;;;;;;4962670;28;20408;-83
2022/01/04 05:51:08;;;;;;;11.43;8.70;;;;;;;;;;4969268;28;20018;-85
2022/01/04 05:53:34;;;;;;;11.70;8.23;;;;;;;;;;4965129;28;20092;-84
2022/01/04 05:55:59;;;;;;;13.60;9.30;;;;;;;;;;4965450;28;20023;-85
2022/01/04 05:58:24;;;;;;;11.50;8.75;;;;;;;;;;4966899;28;20034;-84
2022/01/04 06:00:50;;;;;;;10.52;8.23;;;;;;;;;;4972015;28;20485;-83
2022/01/04 06:03:15;;;;;;;14.18;8.40;;;;;;;;;;4971022;28;20034;-85
2022/01/04 06:05:41;;;;;;;11.18;8.68;;;;;;;;;;4965676;28;20544;-83
2022/01/04 06:08:06;;;;;;;12.18;8.35;;;;;;;;;;4967232;28;20026;-84
2022/01/04 06:10:38;;;;;;;11.43;8.13;;;;;;;;;;4969032;28;20044;-85
2022/01/04 06:15:29;;;;;;;12.00;8.43;;;;;;;;;;4981340;28;20099;-83
2022/01/04 06:17:54;;;;;;;12.15;8.25;;;;;;;;;;4970796;28;20038;-84
2022/01/04 06:20:21;;;;;;;12.30;8.10;;;;;;;;;;4969110;28;20058;-84
2022/01/04 06:22:51;;;;;;;12.52;8.27;;;;;;;;;;4971867;28;20032;-85
2022/01/04 06:25:19;;;;;;;12.82;8.18;;;;;;;;;;4986084;28;20977;-84
2022/01/04 06:27:46;;;;;;;10.73;7.63;;;;;;;;;;4966760;28;20039;-83
2022/01/04 06:30:20;;;;;;;10.57;7.82;;;;;;;;;;4970447;28;20030;-84
2022/01/04 06:32:46;;;;;;;12.10;8.63;;;;;;;;;;4972840;28;20089;-83
2022/01/04 06:35:13;;;;;;;14.10;8.95;;;;;;;;;;4977676;28;20044;-84
2022/01/04 06:37:41;;;;;;;12.77;8.48;;;;;;;;;;4989459;28;20121;-85
2022/01/04 06:40:07;;;;;;;15.93;10.13;;;;;;;;;;4967394;28;20066;-83
2022/01/04 06:42:33;;;;;;;13.07;8.60;;;;;;;;;;4974329;28;20030;-85
2022/01/04 06:44:58;;;;;;;14.52;9.15;;;;;;;;;;4998614;28;20474;-85
2022/01/04 06:47:23;;;;;;;14.38;9.48;;;;;;;;;;4967463;28;20034;-85
2022/01/04 06:49:49;;;;;;;13.27;9.18;;;;;;;;;;4968983;28;20036;-84
2022/01/04 06:52:20;;;;;;;13.30;9.07;;;;;;;;;;4968167;28;20042;-83
2022/01/04 06:54:46;;;;;;;16.33;9.45;;;;;;;;;;4972639;28;20026;-84
2022/01/04 06:57:11;;;;;;;13.45;8.60;;;;;;;;;;4971323;28;20393;-85
2022/01/04 06:59:37;;;;;;;13.55;8.27;;;;;;;;;;4965067;28;20073;-84
2022/01/04 07:02:02;;;;;;;15.27;9.50;;;;;;;;;;5001213;28;20031;-84
2022/01/04 07:04:28;;;;;;;13.95;9.27;;;;;;;;;;4983982;28;20505;-84
2022/01/04 07:06:53;;;;;;;16.20;9.77;;;;;;;;;;4970652;28;20026;-84
2022/01/04 07:09:19;;;;;;;15.25;9.90;;;;;;;;;;4967117;28;20014;-83
2022/01/04 07:11:44;;;;;;;15.38;9.75;;;;;;;;;;5000043;28;20034;-85
2022/01/04 07:14:09;;;;;;;17.92;9.68;;;;;;;;;;4986640;28;20054;-83
2022/01/04 07:16:35;;;;;;;17.20;9.95;;;;;;;;;;4973421;28;20065;-85
2022/01/04 07:19:00;;;;;;;16.05;9.30;;;;;;;;;;4966263;28;20030;-83
2022/01/04 07:21:26;;;;;;;17.27;10.15;;;;;;;;;;4975468;28;20027;-83
2022/01/04 07:23:54;;;;;;;17.13;9.23;;;;;;;;;;4971978;28;20392;-85
2022/01/04 07:26:20;;;;;;;15.40;9.77;;;;;;;;;;4983749;28;20033;-84
2022/01/04 07:28:47;;;;;;;16.35;9.93;;;;;;;;;;4986702;28;20464;-85
2022/01/04 07:31:13;;;;;;;15.35;9.75;;;;;;;;;;4970264;28;20069;-83
2022/01/04 07:33:39;;;;;;;15.90;9.55;;;;;;;;;;4987699;28;20027;-84
2022/01/04 07:36:09;;;;;;;16.33;9.38;;;;;;;;;;4967788;28;20039;-84
2022/01/04 07:38:35;;;;;;;17.80;9.82;;;;;;;;;;4968804;28;21797;-85
2022/01/04 07:41:01;;;;;;;14.90;9.70;;;;;;;;;;4981830;28;20029;-85
2022/01/04 07:43:27;;;;;;;17.58;9.35;;;;;;;;;;4968370;28;20038;-84
2022/01/04 07:45:53;;;;;;;16.73;9.52;;;;;;;;;;4968515;28;20026;-85
2022/01/04 07:48:19;;;;;;;18.05;10.68;;;;;;;;;;4971410;28;20037;-85
2022/01/04 07:50:44;;;;;;;16.45;9.18;;;;;;;;;;4997473;28;20491;-85
2022/01/04 07:53:09;;;;;;;17.35;10.60;;;;;;;;;;4968933;28;20031;-83
2022/01/04 07:55:35;;;;;;;16.30;10.52;;;;;;;;;;4975512;28;20034;-84
2022/01/04 07:58:00;;;;;;;18.67;10.82;;;;;;;;;;4995789;28;20030;-84
2022/01/04 08:00:27;;;;;;;17.98;11.35;;;;;;;;;;4979203;28;20495;-85
2022/01/04 08:02:53;;;;;;;16.65;11.10;;;;;;;;;;5002924;28;20459;-85
2022/01/04 08:05:18;;;;;;;19.52;12.23;;;;;;;;;;4977826;28;20026;-83
2022/01/04 08:07:44;;;;;;;20.40;12.15;;;;;;;;;;4989570;28;20564;-84
2022/01/04 08:10:11;;;;;;;22.25;12.60;;;;;;;;;;4995321;28;20034;-84
2022/01/04 08:12:36;;;;;;;19.30;11.73;;;;;;;;;;4978604;28;20537;-84
2022/01/04 08:15:03;;;;;;;19.70;12.02;;;;;;;;;;4980974;28;20023;-84
2022/01/04 08:17:30;;;;;;;20.90;11.95;;;;;;;;;;4982765;28;20039;-84
2022/01/04 08:19:56;;;;;;;20.25;11.75;;;;;;;;;;4999535;28;20042;-85
2022/01/04 08:22:21;;;;;;;19.15;11.95;;;;;;;;;;4990361;28;20053;-83
2022/01/04 08:24:46;;;;;;;19.15;11.55;;;;;;;;;;4966175;28;20399;-84
2022/01/04 08:27:11;;;;;;;19.23;12.23;;;;;;;;;;4965757;28;20026;-84
2022/01/04 08:29:37;;;;;;;18.73;11.88;;;;;;;;;;4987502;28;20089;-84
2022/01/04 08:32:02;;;;;;;17.58;11.38;;;;;;;;;;4972751;28;20049;-85
2022/01/04 08:34:29;;;;;;;17.17;10.75;;;;;;;;;;4991602;28;20158;-85
2022/01/04 08:36:58;;;;;;;19.13;11.57;;;;;;;;;;4966882;28;20073;-85
2022/01/04 08:39:26;;;;;;;17.85;10.98;;;;;;;;;;4945341;28;20485;-83
2022/01/04 08:41:54;;;;;;;16.77;11.27;;;;;;;;;;4951672;28;20090;-83
2022/01/04 08:44:45;;;;;;;21.27;12.30;;;;;;;;;;4941966;28;20023;-83
2022/01/04 08:47:10;;;;;;;18.38;11.50;;;;;;;;;;4951879;28;20067;-85
2022/01/04 08:49:37;;;;;;;19.02;11.55;;;;;;;;;;4938904;28;20118;-85
2022/01/04 08:52:05;;;;;;;18.08;11.02;;;;;;;;;;4945819;28;20030;-85
2022/01/04 08:54:31;;;;;;;19.23;11.10;;;;;;;;;;4943460;28;20035;-85
2022/01/04 08:56:56;;;;;;;18.48;11.73;;;;;;;;;;4949855;28;20035;-84
2022/01/04 08:59:22;;;;;;;18.83;12.10;;;;;;;;;;4951384;28;20485;-85
2022/01/04 09:01:47;;;;;;;22.58;12.02;;;;;;;;;;4946073;28;20035;-85
2022/01/04 09:04:13;;;;;;;20.08;12.05;;;;;;;;;;4942303;28;20031;-84
2022/01/04 09:06:39;;;;;;;20.05;11.85;;;;;;;;;;4945978;28;20125;-85
2022/01/04 09:09:05;;;;;;;22.42;13.25;;;;;;;;;;4941719;28;20313;-84
2022/01/04 09:11:32;;;;;;;22.15;13.00;;;;;;;;;;4951872;28;20039;-85
2022/01/04 09:14:20;;;;;;;20.15;12.57;;;;;;;;;;4945391;28;20138;-84
2022/01/04 09:19:29;;;;;;;20.88;12.55;;;;;;;;;;4945715;28;20078;-86
2022/01/04 09:21:55;;;;;;;24.08;13.77;;;;;;;;;;4978574;28;20442;-85
2022/01/04 09:24:21;;;;;;;22.85;12.68;;;;;;;;;;4954937;28;20042;-84
2022/01/04 09:26:47;;;;;;;20.35;13.02;;;;;;;;;;4946932;28;20026;-84
2022/01/04 09:29:14;;;;;;;20.85;12.60;;;;;;;;;;4938940;28;20046;-85
2022/01/04 09:31:39;;;;;;;21.27;13.23;;;;;;;;;;4939878;28;20093;-85
2022/01/04 09:34:04;;;;;;;22.73;13.45;;;;;;;;;;4941895;28;20561;-84
2022/01/04 09:36:45;;;;;;;23.10;13.25;;;;;;;;;;4942804;28;20751;-84
2022/01/04 09:39:15;;;;;;;22.63;13.48;;;;;;;;;;4989744;28;20034;-86
2022/01/04 09:41:42;;;;;;;21.35;12.88;;;;;;;;;;4988844;28;20568;-84
2022/01/04 09:44:07;;;;;;;24.65;13.15;;;;;;;;;;4982416;28;20078;-84
2022/01/04 09:46:33;;;;;;;24.38;14.18;;;;;;;;;;4958171;28;20046;-84
2022/01/04 09:48:58;;;;;;;20.75;12.95;;;;;;;;;;4993635;28;20027;-84
2022/01/04 09:51:26;;;;;;;21.25;12.95;;;;;;;;;;4974549;28;20500;-84
2022/01/04 09:54:26;;;;;;;22.83;13.52;;;;;;;;;;4976852;28;20507;-85
2022/01/04 09:56:55;;;;;;;25.83;14.80;;;;;;;;;;4956737;28;20038;-84
2022/01/04 09:59:23;;;;;;;23.00;13.82;;;;;;;;;;4972844;28;20212;-85
2022/01/04 10:01:59;;;;;;;23.30;13.38;;;;;;;;;;4958238;28;20523;-84
2022/01/04 10:04:45;;;;;;;;;;;;;;;;;;;;;
2022/01/04 10:07:25;;;;;;;;;;;;;;;;;;;;;
2022/01/04 10:09:52;;;;;;;22.65;13.48;;;;;;;;;;4972401;28;20045;-84
2022/01/04 10:12:36;;;;;;;25.25;13.93;;;;;;;;;;4985376;28;20078;-85
2022/01/04 10:15:02;;;;;;;20.88;13.13;;;;;;;;;;4971217;28;20038;-85
2022/01/04 10:17:33;;;;;;;22.33;14.07;;;;;;;;;;4958085;28;20581;-84
2022/01/04 10:20:00;;;;;;;21.13;13.50;;;;;;;;;;4953421;28;20027;-84
2022/01/04 10:22:32;;;;;;;21.42;13.27;;;;;;;;;;4971578;28;20381;-83
2022/01/04 10:25:00;;;;;;;26.02;14.40;;;;;;;;;;4985506;28;20027;-83
2022/01/04 10:27:46;;;;;;;22.70;13.70;;;;;;;;;;4959233;28;20481;-85
2022/01/04 10:30:16;;;;;;;25.17;14.02;;;;;;;;;;4955741;28;20162;-85
2022/01/04 10:33:11;;;;;;;22.63;13.50;;;;;;;;;;4992811;28;21662;-85
2022/01/04 10:35:50;;;;;;;21.35;13.13;;;;;;;;;;4956032;28;20034;-85
2022/01/04 10:38:24;;;;;;;23.45;13.88;;;;;;;;;;4949969;28;20096;-84
2022/01/04 10:41:11;;;;;;;21.98;13.20;;;;;;;;;;4979426;28;20072;-83
2022/01/04 10:43:43;;;;;;;20.13;12.23;;;;;;;;;;4955946;28;20026;-84
2022/01/04 10:46:09;;;;;;;22.27;13.20;;;;;;;;;;4955363;28;20128;-84
2022/01/04 10:48:39;;;;;;;19.88;12.18;;;;;;;;;;4970668;28;20110;-84
2022/01/04 10:51:32;;;;;;;21.98;12.70;;;;;;;;;;4984406;28;20144;-84
2022/01/04 10:54:06;;;;;;;20.90;11.82;;;;;;;;;;4968912;28;20046;-83
2022/01/04 10:59:35;;;;;;;14.70;9.43;;;;;;;;;;4955365;28;20042;-83
2022/01/04 11:02:10;;;;;;;15.77;9.48;;;;;;;;;;4972049;28;20034;-83
2022/01/04 11:07:35;;;;;;;13.40;8.70;;;;;;;;;;4979991;28;20034;-82
2022/01/04 11:10:01;;;;;;;16.45;8.32;;;;;;;;;;4974779;28;20039;-82
2022/01/04 11:12:28;;;;;;;14.27;8.35;;;;;;;;;;4961694;28;20612;-85
2022/01/04 11:14:53;;;;;;;11.80;7.45;;;;;;;;;;4956647;28;20030;-84
2022/01/04 11:17:19;;;;;;;12.20;7.90;;;;;;;;;;4962727;28;20577;-84
2022/01/04 11:19:44;;;;;;;12.82;7.60;;;;;;;;;;4956718;28;20041;-85
2022/01/04 11:22:09;;;;;;;15.00;8.57;;;;;;;;;;4965283;28;20026;-85
2022/01/04 11:24:35;;;;;;;14.45;8.38;;;;;;;;;;4966411;28;20907;-84
2022/01/04 11:27:02;;;;;;;11.85;6.93;;;;;;;;;;4958954;28;20532;-84
2022/01/04 11:29:31;;;;;;;10.82;5.95;;;;;;;;;;4960903;28;20053;-85
2022/01/04 11:32:05;;;;;;;9.30;5.05;;;;;;;;;;4969157;28;20117;-85
2022/01/04 11:34:50;;;;;;;8.43;4.47;;;;;;;;;;4979380;28;20698;-84
2022/01/04 11:37:20;;;;;;;7.53;3.78;;;;;;;;;;4986288;28;20050;-84
2022/01/04 11:39:46;;;;;;;5.85;3.42;;;;;;;;;;4971415;28;20038;-84
2022/01/04 11:42:34;;;;;;;7.13;3.55;;;;;;;;;;4964300;28;20447;-83
2022/01/04 11:45:00;;;;;;;7.28;2.88;;;;;;;;;;4974556;28;20030;-84
2022/01/04 11:47:28;;;;;;;4.60;2.50;;;;;;;;;;4955711;28;20034;-85
2022/01/04 11:50:17;;;;;;;3.55;2.10;;;;;;;;;;4973003;28;20184;-84
2022/01/04 11:52:48;;;;;;;4.55;2.10;;;;;;;;;;4975792;28;20062;-84
2022/01/04 11:55:26;;;;;;;5.20;2.10;;;;;;;;;;4961242;28;20031;-84
2022/01/04 11:57:54;;;;;;;4.47;2.42;;;;;;;;;;4977652;28;20105;-85
2022/01/04 12:00:40;;;;;;;6.18;2.70;;;;;;;;;;4970476;28;20026;-84
2022/01/04 12:03:14;;;;;;;4.70;2.35;;;;;;;;;;4977237;28;20455;-84
2022/01/04 12:05:55;;;;;;;6.70;2.70;;;;;;;;;;4964241;28;20041;-83
2022/01/04 12:08:21;;;;;;;6.30;2.53;;;;;;;;;;4985568;28;20022;-85
2022/01/04 12:10:49;;;;;;;4.47;2.40;;;;;;;;;;4968349;28;21206;-84
2022/01/04 12:13:20;;;;;;;5.97;2.15;;;;;;;;;;4963654;28;20027;-83
2022/01/04 12:15:58;;;;;;;5.95;2.10;;;;;;;;;;4962822;28;20042;-85
2022/01/04 12:18:23;;;;;;;5.65;2.20;;;;;;;;;;4963406;28;20125;-84
2022/01/04 12:20:50;;;;;;;6.75;2.47;;;;;;;;;;4964125;28;20156;-84
2022/01/04 12:23:35;;;;;;;5.68;2.35;;;;;;;;;;4977000;28;20038;-83
2022/01/04 12:26:14;;;;;;;6.00;2.50;;;;;;;;;;4993909;28;20419;-85
2022/01/04 12:28:43;;;;;;;7.05;3.20;;;;;;;;;;4978436;28;20026;-83
2022/01/04 12:31:18;;;;;;;5.18;2.90;;;;;;;;;;4979710;28;20471;-84
2022/01/04 12:33:45;;;;;;;6.70;3.30;;;;;;;;;;4977526;28;20118;-84
2022/01/04 12:36:23;;;;;;;7.03;3.50;;;;;;;;;;4957313;28;20030;-85
2022/01/04 12:38:49;;;;;;;7.35;3.63;;;;;;;;;;5001975;28;20072;-83
2022/01/04 12:41:15;;;;;;;7.55;3.80;;;;;;;;;;4973759;28;20022;-84
2022/01/04 12:43:41;;;;;;;7.60;3.90;;;;;;;;;;4987058;28;20105;-84
2022/01/04 12:46:06;;;;;;;6.20;3.30;;;;;;;;;;4976225;28;20117;-84
2022/01/04 12:48:48;;;;;;;7.10;3.42;;;;;;;;;;4981356;28;20030;-85
2022/01/04 12:51:43;;;;;;;7.75;3.97;;;;;;;;;;4978491;28;20488;-84
2022/01/04 12:54:10;;;;;;;8.38;3.20;;;;;;;;;;4972606;28;20033;-84
2022/01/04 12:56:58;;;;;;;6.55;2.70;;;;;;;;;;4979793;28;20022;-84
2022/01/04 12:59:37;;;;;;;6.93;2.40;;;;;;;;;;4971798;28;20034;-85
2022/01/04 13:02:11;;;;;;;8.35;2.42;;;;;;;;;;4982124;28;20054;-85
2022/01/04 13:04:38;;;;;;;6.40;2.30;;;;;;;;;;4950271;28;20041;-84
2022/01/04 13:07:33;;;;;;;6.10;2.10;;;;;;;;;;4958220;28;20093;-84
2022/01/04 13:10:18;;;;;;;4.55;1.80;;;;;;;;;;4960696;28;20124;-84
2022/01/04 13:12:49;;;;;;;5.90;2.33;;;;;;;;;;4956325;28;20786;-85
2022/01/04 13:15:19;;;;;;;5.13;2.25;;;;;;;;;;4957211;28;20101;-84
2022/01/04 13:17:51;;;;;;;5.25;2.47;;;;;;;;;;4955254;28;20188;-85
2022/01/04 13:20:34;;;;;;;7.30;2.65;;;;;;;;;;4960124;28;20869;-84
2022/01/04 13:23:07;;;;;;;6.63;2.70;;;;;;;;;;4960080;28;20657;-84
2022/01/04 13:25:35;;;;;;;5.90;2.60;;;;;;;;;;4969861;28;20042;-85
2022/01/04 13:28:05;;;;;;;5.28;2.35;;;;;;;;;;4962969;28;20453;-83
2022/01/04 13:30:55;;;;;;;6.43;2.80;;;;;;;;;;4967737;28;20018;-83
2022/01/04 13:33:23;;;;;;;5.63;2.80;;;;;;;;;;4981776;28;20037;-84
2022/01/04 13:36:09;;;;;;;4.65;2.63;;;;;;;;;;4967314;28;20045;-85
2022/01/04 13:38:36;;;;;;;7.28;3.00;;;;;;;;;;4962549;28;20042;-85
2022/01/04 13:41:03;;;;;;;6.38;2.80;;;;;;;;;;4980924;28;20038;-85
2022/01/04 13:44:00;;;;;;;4.13;2.35;;;;;;;;;;4967364;28;20034;-84
2022/01/04 13:46:29;;;;;;;6.32;1.80;;;;;;;;;;4985470;28;20046;-85
2022/01/04 13:48:55;;;;;;;4.70;1.90;;;;;;;;;;4966937;28;20038;-84
2022/01/04 13:51:30;;;;;;;4.68;2.30;;;;;;;;;;4969652;28;20037;-85
2022/01/04 13:54:07;;;;;;;4.10;2.25;;;;;;;;;;4967939;28;20757;-85
2022/01/04 13:56:32;;;;;;;3.88;1.70;;;;;;;;;;4971542;28;20033;-84
2022/01/04 13:59:01;;;;;;;4.30;1.92;;;;;;;;;;4968023;28;20592;-85
2022/01/04 14:01:43;;;;;;;6.30;2.30;;;;;;;;;;4970402;28;20535;-84
2022/01/04 14:04:14;;;;;;;5.72;2.22;;;;;;;;;;4967421;28;20041;-85
2022/01/04 14:06:48;;;;;;;5.85;2.22;;;;;;;;;;4985496;28;20100;-83
2022/01/04 14:09:33;;;;;;;6.63;2.40;;;;;;;;;;4965747;28;20037;-85
2022/01/04 14:12:32;;;;;;;5.30;2.30;;;;;;;;;;4962454;28;20035;-84
2022/01/04 14:15:17;;;;;;;5.18;2.13;;;;;;;;;;4959266;28;20085;-83
2022/01/04 14:17:42;;;;;;;7.68;1.95;;;;;;;;;;4965923;28;20031;-85
2022/01/04 14:20:12;;;;;;;4.63;1.95;;;;;;;;;;4964265;28;20014;-85
2022/01/04 14:22:44;;;;;;;3.78;1.98;;;;;;;;;;4983515;28;20496;-86
2022/01/04 14:25:34;;;;;;;3.80;1.75;;;;;;;;;;4977810;28;20140;-85
2022/01/04 14:27:59;;;;;;;7.35;2.30;;;;;;;;;;4968168;28;20034;-85
2022/01/04 14:30:26;;;;;;;4.40;1.80;;;;;;;;;;4964875;28;20027;-85
2022/01/04 14:32:53;;;;;;;3.35;1.55;;;;;;;;;;4967624;28;20032;-85
2022/01/04 14:35:20;;;;;;;6.10;3.25;;;;;;;;;;4969218;28;20560;-85
2022/01/04 14:37:47;;;;;;;7.95;4.18;;;;;;;;;;4968051;28;20038;-84
2022/01/04 14:40:19;;;;;;;5.13;1.80;;;;;;;;;;4973652;28;20038;-85
2022/01/04 14:42:44;;;;;;;8.63;4.43;;;;;;;;;;4995050;28;20050;-83
2022/01/04 14:45:11;;;;;;;10.27;5.40;;;;;;;;;;5007751;28;20042;-85
2022/01/04 14:47:45;;;;;;;8.63;3.70;;;;;;;;;;5000193;28;20085;-86
2022/01/04 14:50:11;;;;;;;4.45;2.05;;;;;;;;;;4973185;28;20034;-83
2022/01/04 14:52:39;;;;;;;4.65;1.75;;;;;;;;;;4970851;28;20030;-85
2022/01/04 14:55:14;;;;;;;5.13;2.45;;;;;;;;;;4973757;28;20038;-83